Time;durP1;ratioP1;P1;durP2;ratioP2;P2;SDS_P1;SDS_P2;PMS_P1;PMS_P2;Temp;Humidity;BMP_temperature;BMP_pressure;BME280_temperature;BME280_humidity;BME280_pressure;Samples;Min_cycle;Max_cycle;Signal;HPM_P1;HPM_P2
2024/01/24 00:02:06;;;;;;;0.30;0.30;;;;;;;8.84;100.00;99654.75;5041456;28;20060;-59
2024/01/24 00:04:34;;;;;;;0.20;0.20;;;;;;;8.75;100.00;99673.94;5039140;28;20052;-59
2024/01/24 00:07:01;;;;;;;0.30;0.30;;;;;;;8.84;100.00;99672.63;5039975;28;20539;-60
2024/01/24 00:09:30;;;;;;;0.28;0.28;;;;;;;8.78;100.00;99682.34;5041877;28;20260;-59
2024/01/24 00:11:58;;;;;;;0.30;0.30;;;;;;;8.86;100.00;99675.88;5043614;28;20055;-60
2024/01/24 00:14:25;;;;;;;0.30;0.30;;;;;;;8.89;100.00;99672.00;5038608;28;20052;-59
2024/01/24 00:16:54;;;;;;;0.30;0.30;;;;;;;8.94;100.00;99664.13;5041976;28;20072;-60
2024/01/24 00:19:21;;;;;;;0.30;0.30;;;;;;;8.95;100.00;99655.06;5040002;28;20052;-60
2024/01/24 00:21:48;;;;;;;0.30;0.30;;;;;;;9.00;100.00;99660.56;5037626;28;20149;-59
2024/01/24 00:24:15;;;;;;;0.30;0.30;;;;;;;8.93;100.00;99662.47;5017959;28;20483;-60
2024/01/24 00:26:43;;;;;;;0.20;0.20;;;;;;;8.99;100.00;99653.56;5040837;28;20064;-59
2024/01/24 00:29:10;;;;;;;0.22;0.22;;;;;;;8.94;100.00;99640.88;5020519;28;20052;-60
2024/01/24 00:31:38;;;;;;;0.20;0.20;;;;;;;9.04;100.00;99659.06;5042877;28;20040;-59
2024/01/24 00:34:06;;;;;;;0.30;0.30;;;;;;;9.05;100.00;99639.31;5040318;28;20048;-59
2024/01/24 00:36:36;;;;;;;0.30;0.30;;;;;;;8.99;100.00;99626.84;5041242;28;20081;-60
2024/01/24 00:39:04;;;;;;;0.30;0.30;;;;;;;8.91;100.00;99608.41;5037487;28;20063;-60
2024/01/24 00:41:31;;;;;;;0.10;0.10;;;;;;;9.00;100.00;99581.16;5016500;28;20045;-60
2024/01/24 00:43:58;;;;;;;0.32;0.32;;;;;;;9.00;100.00;99609.75;5041897;28;20064;-60
2024/01/24 00:46:25;;;;;;;0.20;0.20;;;;;;;8.96;100.00;99616.56;5041342;28;20048;-59
2024/01/24 00:48:52;;;;;;;0.25;0.25;;;;;;;9.05;100.00;99615.25;5038592;28;20362;-60
2024/01/24 00:51:21;;;;;;;0.30;0.30;;;;;;;8.94;100.00;99621.34;5041128;28;20049;-59
2024/01/24 00:53:51;;;;;;;0.30;0.30;;;;;;;9.05;100.00;99604.56;5041119;28;20044;-59
2024/01/24 00:56:18;;;;;;;0.30;0.30;;;;;;;9.07;100.00;99621.19;5037354;28;20045;-60
2024/01/24 00:58:45;;;;;;;0.30;0.30;;;;;;;9.19;100.00;99622.09;5042142;28;20438;-59
2024/01/24 01:01:12;;;;;;;0.22;0.22;;;;;;;9.09;100.00;99623.66;5039907;28;20041;-60
2024/01/24 01:03:39;;;;;;;0.30;0.30;;;;;;;9.21;100.00;99621.84;5041503;28;20112;-59
2024/01/24 01:06:06;;;;;;;0.20;0.20;;;;;;;9.12;100.00;99610.66;5041966;28;20067;-59
2024/01/24 01:08:35;;;;;;;0.20;0.20;;;;;;;9.17;100.00;99613.47;5042202;28;20420;-60
2024/01/24 01:11:05;;;;;;;0.20;0.20;;;;;;;9.25;100.00;99610.47;5037750;28;20463;-60
2024/01/24 01:13:33;;;;;;;0.22;0.22;;;;;;;9.19;100.00;99614.06;5038556;28;21097;-60
2024/01/24 01:16:03;;;;;;;0.30;0.30;;;;;;;9.15;100.00;99594.13;5039777;28;20156;-60
2024/01/24 01:18:32;;;;;;;0.20;0.20;;;;;;;9.19;100.00;99589.19;5021265;28;20154;-60
2024/01/24 01:20:59;;;;;;;0.20;0.20;;;;;;;9.21;100.00;99582.56;5040178;28;20040;-60
2024/01/24 01:23:27;;;;;;;0.30;0.30;;;;;;;9.24;100.00;99592.81;5035174;28;20056;-60
2024/01/24 01:25:55;;;;;;;0.30;0.30;;;;;;;9.25;100.00;99589.06;5021445;28;20087;-60
2024/01/24 01:28:22;;;;;;;0.30;0.30;;;;;;;9.19;100.00;99606.03;5039376;28;20095;-60
2024/01/24 01:30:49;;;;;;;0.30;0.30;;;;;;;9.29;100.00;99595.63;5041055;28;20049;-60
2024/01/24 01:33:17;;;;;;;0.30;0.30;;;;;;;9.23;100.00;99614.41;5040267;28;20889;-60
2024/01/24 01:35:44;;;;;;;0.20;0.20;;;;;;;9.21;100.00;99598.63;5040210;28;20079;-60
2024/01/24 01:38:13;;;;;;;0.30;0.30;;;;;;;9.23;100.00;99617.91;5022573;28;20128;-60
2024/01/24 01:40:40;;;;;;;0.20;0.20;;;;;;;9.27;100.00;99608.41;5040778;28;20049;-60
2024/01/24 01:43:13;;;;;;;0.20;0.20;;;;;;;9.26;100.00;99596.09;5036644;28;20041;-60
2024/01/24 01:45:40;;;;;;;0.30;0.30;;;;;;;9.28;100.00;99607.38;5040257;28;20077;-60
2024/01/24 01:48:08;;;;;;;0.22;0.22;;;;;;;9.29;100.00;99590.28;5038144;28;20041;-60
2024/01/24 01:50:35;;;;;;;0.20;0.20;;;;;;;9.27;100.00;99594.22;5046779;28;20044;-59
2024/01/24 01:53:03;;;;;;;0.30;0.30;;;;;;;9.16;100.00;99595.78;5043307;28;20045;-60
2024/01/24 01:55:30;;;;;;;0.30;0.30;;;;;;;9.21;100.00;99595.09;5044541;28;20045;-60
2024/01/24 01:57:57;;;;;;;0.20;0.20;;;;;;;9.18;100.00;99574.16;5024865;28;20056;-60
2024/01/24 02:00:26;;;;;;;0.30;0.30;;;;;;;9.19;100.00;99578.47;5021910;28;20049;-60
2024/01/24 02:02:53;;;;;;;0.28;0.28;;;;;;;9.25;100.00;99588.28;5044512;28;20075;-60
2024/01/24 02:05:20;;;;;;;0.30;0.30;;;;;;;9.27;100.00;99616.44;5042564;28;20041;-60
2024/01/24 02:07:47;;;;;;;0.20;0.20;;;;;;;9.29;100.00;99616.22;5044965;28;20682;-60
2024/01/24 02:10:15;;;;;;;0.30;0.30;;;;;;;9.32;100.00;99609.59;5025623;28;20041;-60
2024/01/24 02:12:43;;;;;;;0.30;0.30;;;;;;;9.33;100.00;99619.25;5042839;28;20575;-59
2024/01/24 02:15:10;;;;;;;0.28;0.28;;;;;;;9.33;100.00;99612.03;5041177;28;20052;-60
2024/01/24 02:17:40;;;;;;;0.20;0.20;;;;;;;9.38;100.00;99606.00;5041356;28;20492;-59
2024/01/24 02:20:09;;;;;;;0.28;0.28;;;;;;;9.40;100.00;99590.56;5042510;28;20127;-60
2024/01/24 02:22:36;;;;;;;0.28;0.28;;;;;;;9.36;100.00;99586.69;5044387;28;20087;-60
2024/01/24 02:25:06;;;;;;;0.20;0.20;;;;;;;9.43;100.00;99584.75;5043255;28;20055;-59
2024/01/24 02:27:33;;;;;;;0.20;0.20;;;;;;;9.44;100.00;99571.16;5045637;28;20148;-60
2024/01/24 02:30:00;;;;;;;0.20;0.20;;;;;;;9.47;100.00;99581.41;5044476;28;20052;-60
2024/01/24 02:32:27;;;;;;;0.20;0.20;;;;;;;9.53;100.00;99584.19;5044226;28;20044;-60
2024/01/24 02:34:54;;;;;;;0.20;0.20;;;;;;;9.53;100.00;99582.34;5015487;28;20068;-60
2024/01/24 02:37:22;;;;;;;0.20;0.20;;;;;;;9.56;100.00;99595.28;5042779;28;20541;-59
2024/01/24 02:39:49;;;;;;;0.20;0.20;;;;;;;9.57;100.00;99575.50;5043755;28;20037;-60
2024/01/24 02:42:19;;;;;;;0.20;0.20;;;;;;;9.56;100.00;99568.53;5041632;28;20285;-60
2024/01/24 02:44:46;;;;;;;0.20;0.20;;;;;;;9.59;100.00;99557.38;5022714;28;20417;-60
2024/01/24 02:47:13;;;;;;;0.30;0.30;;;;;;;9.59;100.00;99543.97;5041103;28;20045;-59
2024/01/24 02:49:42;;;;;;;0.30;0.30;;;;;;;9.62;100.00;99546.19;5043072;28;20051;-59
2024/01/24 02:52:09;;;;;;;0.28;0.28;;;;;;;9.67;100.00;99558.91;5041500;28;20045;-60
2024/01/24 02:54:41;;;;;;;0.22;0.22;;;;;;;9.63;100.00;99555.84;5041819;28;20052;-60
2024/01/24 02:57:08;;;;;;;0.30;0.30;;;;;;;9.59;100.00;99546.66;5044271;28;20543;-60
2024/01/24 02:59:37;;;;;;;0.28;0.28;;;;;;;9.67;100.00;99553.53;5042267;28;20090;-59
2024/01/24 03:02:04;;;;;;;0.30;0.30;;;;;;;9.68;100.00;99561.34;5041762;28;20063;-60
2024/01/24 03:04:34;;;;;;;0.20;0.20;;;;;;;9.63;100.00;99547.81;5041603;28;20049;-60
2024/01/24 03:07:02;;;;;;;0.30;0.30;;;;;;;9.67;100.00;99553.53;5041164;28;20041;-60
2024/01/24 03:09:32;;;;;;;0.20;0.20;;;;;;;9.62;100.00;99556.91;5043983;28;20049;-60
2024/01/24 03:11:59;;;;;;;0.30;0.30;;;;;;;9.69;100.00;99543.44;5019418;28;20045;-60
2024/01/24 03:14:26;;;;;;;0.20;0.20;;;;;;;9.80;100.00;99549.84;5043309;28;20094;-59
2024/01/24 03:16:54;;;;;;;0.20;0.20;;;;;;;9.88;100.00;99544.16;5043299;28;20068;-60
2024/01/24 03:19:21;;;;;;;0.20;0.20;;;;;;;9.81;100.00;99535.41;5038848;28;20926;-60
2024/01/24 03:21:49;;;;;;;0.30;0.30;;;;;;;9.87;100.00;99521.13;5043211;28;20052;-59
2024/01/24 03:24:16;;;;;;;0.20;0.20;;;;;;;9.94;100.00;99519.16;5041760;28;20044;-60
2024/01/24 03:26:43;;;;;;;0.20;0.20;;;;;;;9.93;100.00;99510.31;5048125;28;20052;-60
2024/01/24 03:29:10;;;;;;;0.20;0.20;;;;;;;9.97;100.00;99521.34;5041573;28;20080;-60
2024/01/24 03:31:37;;;;;;;0.30;0.30;;;;;;;10.01;100.00;99516.34;5041833;28;20119;-60
2024/01/24 03:34:06;;;;;;;0.20;0.20;;;;;;;10.14;100.00;99514.28;5041480;28;20056;-60
2024/01/24 03:36:33;;;;;;;0.25;0.25;;;;;;;10.08;100.00;99496.47;5041467;28;20131;-60
2024/01/24 03:39:03;;;;;;;0.20;0.20;;;;;;;10.06;100.00;99505.75;5023639;28;20045;-60
2024/01/24 03:41:32;;;;;;;0.20;0.20;;;;;;;10.05;100.00;99504.94;5038221;28;20045;-60
2024/01/24 03:43:59;;;;;;;0.20;0.20;;;;;;;10.06;100.00;99509.28;5040313;28;20063;-60
2024/01/24 03:46:26;;;;;;;0.20;0.20;;;;;;;10.07;100.00;99515.44;5041673;28;20151;-59
2024/01/24 03:48:53;;;;;;;0.20;0.20;;;;;;;10.09;100.00;99508.81;5041709;28;20143;-59
2024/01/24 03:51:22;;;;;;;0.15;0.15;;;;;;;10.17;100.00;99504.16;5036820;28;20032;-60
2024/01/24 03:53:49;;;;;;;0.20;0.20;;;;;;;10.23;100.00;99479.09;5043873;28;20148;-60
2024/01/24 03:56:16;;;;;;;0.20;0.20;;;;;;;10.23;100.00;99471.06;5038130;28;20265;-59
2024/01/24 03:58:43;;;;;;;0.20;0.20;;;;;;;10.21;100.00;99468.63;5041147;28;20567;-60
2024/01/24 04:01:11;;;;;;;0.20;0.20;;;;;;;10.29;100.00;99464.81;5040495;28;20040;-60
2024/01/24 04:03:41;;;;;;;0.20;0.20;;;;;;;10.39;100.00;99478.44;5041045;28;20127;-60
2024/01/24 04:06:08;;;;;;;0.20;0.20;;;;;;;10.53;100.00;99465.56;5042722;28;20056;-60
2024/01/24 04:08:38;;;;;;;0.20;0.20;;;;;;;10.60;100.00;99476.97;5042615;28;20056;-60
2024/01/24 04:11:05;;;;;;;0.20;0.20;;;;;;;10.60;100.00;99478.84;5040301;28;20610;-60
2024/01/24 04:13:32;;;;;;;0.20;0.20;;;;;;;10.69;100.00;99464.84;5041771;28;20118;-60
2024/01/24 04:16:00;;;;;;;0.20;0.20;;;;;;;10.67;100.00;99466.94;5040372;28;20113;-60
2024/01/24 04:18:27;;;;;;;0.20;0.20;;;;;;;10.73;100.00;99476.72;5040538;28;20039;-60
2024/01/24 04:20:54;;;;;;;0.10;0.10;;;;;;;10.80;100.00;99473.91;5043686;28;20148;-60
2024/01/24 04:23:21;;;;;;;0.20;0.20;;;;;;;10.83;100.00;99472.59;5041043;28;20044;-60
2024/01/24 04:25:50;;;;;;;0.10;0.10;;;;;;;11.01;100.00;99467.91;5038478;28;20048;-59
2024/01/24 04:28:17;;;;;;;0.20;0.20;;;;;;;11.00;100.00;99468.94;5041076;28;20045;-59
2024/01/24 04:30:44;;;;;;;0.20;0.20;;;;;;;11.12;100.00;99473.44;5041796;28;20118;-60
2024/01/24 04:33:13;;;;;;;0.10;0.10;;;;;;;11.13;100.00;99458.97;5040579;28;20619;-60
2024/01/24 04:35:42;;;;;;;0.20;0.20;;;;;;;11.11;100.00;99450.38;5040823;28;20051;-59
2024/01/24 04:38:09;;;;;;;0.20;0.20;;;;;;;11.17;100.00;99441.34;5042364;28;20041;-60
2024/01/24 04:40:36;;;;;;;0.20;0.20;;;;;;;11.23;100.00;99469.88;5039088;28;20179;-60
2024/01/24 04:43:05;;;;;;;0.20;0.20;;;;;;;11.34;100.00;99470.91;5039672;28;20387;-57
2024/01/24 04:45:32;;;;;;;0.20;0.20;;;;;;;11.31;100.00;99466.03;5038113;28;20053;-60
2024/01/24 04:47:59;;;;;;;0.17;0.17;;;;;;;11.36;100.00;99466.91;5041473;28;20055;-59
2024/01/24 04:50:26;;;;;;;0.20;0.20;;;;;;;11.32;100.00;99475.69;5040203;28;20419;-60
2024/01/24 04:52:53;;;;;;;0.20;0.20;;;;;;;11.39;100.00;99461.06;5041433;28;20588;-59
2024/01/24 04:55:20;;;;;;;0.20;0.20;;;;;;;11.36;100.00;99469.59;5040915;28;20049;-60
2024/01/24 04:57:47;;;;;;;0.20;0.20;;;;;;;11.35;100.00;99456.41;5042522;28;20037;-60
2024/01/24 05:00:17;;;;;;;0.10;0.10;;;;;;;11.49;100.00;99494.50;5022227;28;20507;-60
2024/01/24 05:02:44;;;;;;;0.10;0.10;;;;;;;11.58;100.00;99498.41;5042190;28;20148;-60
2024/01/24 05:05:14;;;;;;;0.20;0.20;;;;;;;11.57;100.00;99491.41;5042461;28;20045;-60
2024/01/24 05:07:41;;;;;;;0.20;0.20;;;;;;;11.47;100.00;99489.38;5042743;28;20042;-60
2024/01/24 05:10:12;;;;;;;0.20;0.20;;;;;;;11.39;100.00;99493.25;5041009;28;20055;-60
2024/01/24 05:12:41;;;;;;;0.20;0.20;;;;;;;11.47;100.00;99475.16;5040431;28;20079;-60
2024/01/24 05:15:09;;;;;;;0.10;0.10;;;;;;;11.45;100.00;99488.78;5039339;28;20041;-58
2024/01/24 05:17:39;;;;;;;0.20;0.20;;;;;;;11.42;100.00;99476.66;5037707;28;20045;-58
2024/01/24 05:20:08;;;;;;;0.20;0.20;;;;;;;11.45;100.00;99484.22;5039927;28;21009;-58
2024/01/24 05:22:35;;;;;;;0.10;0.10;;;;;;;11.41;100.00;99469.69;5037085;28;20037;-58
2024/01/24 05:25:03;;;;;;;0.20;0.20;;;;;;;11.38;100.00;99478.22;5041428;28;22124;-58
2024/01/24 05:27:30;;;;;;;0.13;0.13;;;;;;;11.44;100.00;99479.94;5045664;28;20041;-58
2024/01/24 05:29:58;;;;;;;0.20;0.20;;;;;;;11.46;100.00;99468.97;5046007;28;20053;-58
2024/01/24 05:32:27;;;;;;;0.20;0.20;;;;;;;11.48;100.00;99455.28;5042980;28;20044;-58
2024/01/24 05:34:56;;;;;;;0.20;0.20;;;;;;;11.53;100.00;99480.38;5040321;28;20049;-58
2024/01/24 05:37:23;;;;;;;0.10;0.10;;;;;;;11.56;100.00;99479.06;5044766;28;20515;-57
2024/01/24 05:39:50;;;;;;;0.10;0.10;;;;;;;11.45;100.00;99478.88;5027645;28;20422;-58
2024/01/24 05:42:20;;;;;;;0.10;0.10;;;;;;;11.31;100.00;99480.25;5043730;28;20403;-58
2024/01/24 05:44:47;;;;;;;0.13;0.13;;;;;;;11.38;100.00;99499.69;5048200;28;20387;-58
2024/01/24 05:47:17;;;;;;;0.20;0.20;;;;;;;11.41;100.00;99509.94;5040928;28;20099;-58
2024/01/24 05:49:44;;;;;;;0.20;0.20;;;;;;;11.35;100.00;99542.28;5043453;28;20140;-58
2024/01/24 05:52:12;;;;;;;0.10;0.10;;;;;;;11.25;100.00;99547.47;5044257;28;20064;-59
2024/01/24 05:54:41;;;;;;;0.20;0.20;;;;;;;11.18;100.00;99558.31;5043209;28;20503;-59
2024/01/24 05:57:08;;;;;;;0.20;0.20;;;;;;;11.17;100.00;99554.03;5043416;28;20176;-58
2024/01/24 05:59:35;;;;;;;0.10;0.10;;;;;;;11.14;100.00;99552.63;5039090;28;20048;-59
2024/01/24 06:02:08;;;;;;;0.17;0.17;;;;;;;11.10;100.00;99554.16;5044505;28;20048;-59
2024/01/24 06:04:37;;;;;;;0.20;0.20;;;;;;;11.04;100.00;99557.78;5042971;28;20049;-59
2024/01/24 06:07:06;;;;;;;0.20;0.20;;;;;;;11.06;100.00;99560.22;5042513;28;20124;-59
2024/01/24 06:09:35;;;;;;;0.20;0.20;;;;;;;11.34;100.00;99565.63;5042908;28;20140;-58
2024/01/24 06:12:02;;;;;;;0.17;0.17;;;;;;;11.38;100.00;99565.94;5042349;28;20048;-59
2024/01/24 06:14:29;;;;;;;0.10;0.10;;;;;;;11.23;100.00;99539.63;5020842;28;20490;-59
2024/01/24 06:16:57;;;;;;;0.10;0.10;;;;;;;11.47;100.00;99523.47;5042517;28;20292;-59
2024/01/24 06:19:24;;;;;;;0.10;0.10;;;;;;;11.34;100.00;99511.97;5042608;28;20049;-59
2024/01/24 06:21:51;;;;;;;0.20;0.20;;;;;;;11.53;100.00;99506.38;5043028;28;20115;-59
2024/01/24 06:24:20;;;;;;;0.20;0.20;;;;;;;11.56;100.00;99500.53;5019195;28;20068;-59
2024/01/24 06:26:49;;;;;;;0.10;0.10;;;;;;;11.52;100.00;99510.13;5040456;28;20518;-59
2024/01/24 06:29:16;;;;;;;0.15;0.15;;;;;;;11.47;100.00;99510.84;5043066;28;20064;-59
2024/01/24 06:31:45;;;;;;;0.15;0.15;;;;;;;11.53;100.00;99546.63;5043478;28;20076;-59
2024/01/24 06:34:12;;;;;;;0.10;0.10;;;;;;;11.60;100.00;99566.09;5039738;28;20044;-59
2024/01/24 06:36:43;;;;;;;0.20;0.20;;;;;;;11.68;100.00;99567.56;5022243;28;20052;-59
2024/01/24 06:39:10;;;;;;;0.10;0.10;;;;;;;11.67;100.00;99572.13;5024932;28;20396;-58
2024/01/24 06:41:37;;;;;;;0.13;0.13;;;;;;;11.65;100.00;99567.00;5044071;28;20048;-58
2024/01/24 06:44:07;;;;;;;0.20;0.20;;;;;;;11.48;100.00;99573.38;5042138;28;20068;-58
2024/01/24 06:46:47;;;;;;;0.20;0.20;;;;;;;11.36;100.00;99590.38;5043009;28;20049;-58
2024/01/24 06:49:16;;;;;;;0.10;0.10;;;;;;;11.39;100.00;99581.03;5025710;28;20033;-58
2024/01/24 06:51:43;;;;;;;0.10;0.10;;;;;;;11.34;100.00;99595.16;5042467;28;20589;-58
2024/01/24 06:54:13;;;;;;;0.20;0.20;;;;;;;11.29;100.00;99592.38;5025276;28;20053;-59
2024/01/24 06:56:40;;;;;;;0.10;0.10;;;;;;;11.16;100.00;99592.66;5045114;28;20072;-58
2024/01/24 06:59:09;;;;;;;0.10;0.10;;;;;;;11.13;100.00;99577.84;5043566;28;20053;-59
2024/01/24 07:01:36;;;;;;;0.20;0.20;;;;;;;11.10;100.00;99585.53;5042072;28;20558;-59
2024/01/24 07:04:04;;;;;;;0.13;0.13;;;;;;;11.21;100.00;99606.16;5043659;28;20049;-59
2024/01/24 07:06:31;;;;;;;0.20;0.20;;;;;;;11.16;100.00;99614.09;5025444;28;20056;-59
2024/01/24 07:08:58;;;;;;;0.10;0.10;;;;;;;11.19;100.00;99619.00;5040634;28;20053;-59
2024/01/24 07:11:25;;;;;;;0.20;0.20;;;;;;;11.21;100.00;99606.97;5041147;28;20053;-59
2024/01/24 07:13:53;;;;;;;0.20;0.20;;;;;;;11.20;100.00;99623.28;5025290;28;20049;-59
2024/01/24 07:16:21;;;;;;;0.20;0.20;;;;;;;11.17;100.00;99638.00;5022786;28;20411;-59
2024/01/24 07:18:51;;;;;;;0.20;0.20;;;;;;;11.17;100.00;99621.91;5042491;28;20061;-59
2024/01/24 07:21:18;;;;;;;;;;;;;;;11.32;100.00;99645.56;5043834;28;20045;-59
2024/01/24 07:23:47;;;;;;;0.20;0.20;;;;;;;11.24;100.00;99643.25;5042738;28;19924;-59
2024/01/24 07:26:15;;;;;;;0.20;0.20;;;;;;;11.23;94.60;99669.25;5041066;28;20102;-59
2024/01/24 07:28:42;;;;;;;0.10;0.10;;;;;;;11.28;90.13;99689.19;5038677;28;20041;-59
2024/01/24 07:31:09;;;;;;;0.30;0.30;;;;;;;11.37;84.16;99674.38;5038950;28;20085;-59
2024/01/24 07:33:38;;;;;;;0.20;0.20;;;;;;;11.33;86.30;99670.50;5017848;28;20576;-59
2024/01/24 07:36:06;;;;;;;0.10;0.10;;;;;;;11.15;84.93;99687.56;5039308;28;20049;-59
2024/01/24 07:38:33;;;;;;;0.20;0.20;;;;;;;11.06;84.93;99705.06;5045306;28;20118;-59
2024/01/24 07:41:00;;;;;;;0.10;0.10;;;;;;;11.03;84.33;99711.72;5042360;28;20048;-60
2024/01/24 07:43:29;;;;;;;0.20;0.20;;;;;;;11.06;84.00;99718.47;5035320;28;20722;-59
2024/01/24 07:45:56;;;;;;;0.20;0.20;;;;;;;10.95;84.79;99720.94;5021434;28;20044;-59
2024/01/24 07:48:26;;;;;;;0.20;0.20;;;;;;;10.85;84.92;99703.78;5040885;28;20072;-60
2024/01/24 07:50:55;;;;;;;0.20;0.20;;;;;;;10.81;85.93;99722.22;5042010;28;20055;-59
2024/01/24 07:53:23;;;;;;;0.10;0.10;;;;;;;10.90;85.23;99736.91;5041259;28;20119;-59
2024/01/24 07:55:50;;;;;;;0.20;0.20;;;;;;;10.77;86.62;99745.97;5040603;28;20041;-59
2024/01/24 07:58:17;;;;;;;0.20;0.20;;;;;;;10.76;87.79;99727.47;5042675;28;20037;-60
2024/01/24 08:00:47;;;;;;;0.20;0.20;;;;;;;10.73;86.89;99718.03;5038546;28;20045;-59
2024/01/24 08:03:14;;;;;;;0.20;0.20;;;;;;;10.79;87.13;99722.44;5020392;28;20079;-60
2024/01/24 08:05:44;;;;;;;0.20;0.20;;;;;;;10.88;85.38;99719.41;5043891;28;20033;-59
2024/01/24 08:08:12;;;;;;;0.20;0.20;;;;;;;10.81;86.65;99751.72;5039502;28;20273;-59
2024/01/24 08:10:40;;;;;;;0.13;0.13;;;;;;;10.80;85.82;99760.78;5039077;28;20056;-59
2024/01/24 08:13:08;;;;;;;0.20;0.20;;;;;;;10.84;85.56;99745.88;5036611;28;20044;-59
2024/01/24 08:15:35;;;;;;;0.22;0.22;;;;;;;10.85;86.00;99752.06;5041037;28;20044;-59
2024/01/24 08:18:02;;;;;;;0.20;0.20;;;;;;;10.97;84.00;99756.38;5041259;28;20102;-59
2024/01/24 08:20:30;;;;;;;0.20;0.20;;;;;;;11.06;84.52;99775.66;5039275;28;20040;-58
2024/01/24 08:22:57;;;;;;;0.20;0.20;;;;;;;11.15;84.05;99794.88;5040198;28;20741;-60
2024/01/24 08:25:26;;;;;;;0.20;0.20;;;;;;;11.23;81.42;99784.63;5041521;28;20518;-60
2024/01/24 08:27:55;;;;;;;0.30;0.30;;;;;;;11.32;79.10;99808.44;5015099;28;20104;-60
2024/01/24 08:30:21;;;;;;;0.30;0.30;;;;;;;11.38;77.86;99797.59;5019643;28;20052;-60
2024/01/24 08:32:48;;;;;;;0.20;0.20;;;;;;;11.17;79.82;99796.28;5018629;28;20048;-59
2024/01/24 08:35:16;;;;;;;0.20;0.20;;;;;;;10.98;81.32;99810.84;5041905;28;20045;-60
2024/01/24 08:37:43;;;;;;;0.20;0.20;;;;;;;10.88;82.75;99806.03;5041676;28;20045;-59
2024/01/24 08:40:11;;;;;;;0.20;0.20;;;;;;;10.87;83.66;99823.19;5041721;28;20076;-60
2024/01/24 08:42:45;;;;;;;0.20;0.20;;;;;;;10.69;85.17;99820.59;5039790;28;20135;-59
2024/01/24 08:45:16;;;;;;;0.10;0.10;;;;;;;10.68;86.44;99841.19;5041152;28;20046;-59
2024/01/24 08:47:43;;;;;;;;;;;;;;;10.69;86.04;99823.25;5024707;28;20090;-60
2024/01/24 08:50:11;;;;;;;0.20;0.20;;;;;;;10.68;86.78;99829.66;5035776;28;20439;-59
2024/01/24 08:52:39;;;;;;;0.20;0.20;;;;;;;10.60;87.38;99829.97;5037807;28;20029;-59
2024/01/24 08:55:07;;;;;;;0.20;0.20;;;;;;;10.72;87.10;99830.84;5023985;28;20053;-60
2024/01/24 08:57:35;;;;;;;0.10;0.10;;;;;;;10.62;86.94;99846.66;5023124;28;20049;-59
2024/01/24 09:00:07;;;;;;;0.30;0.30;;;;;;;10.76;85.58;99856.16;5040470;28;20048;-59
2024/01/24 09:02:34;;;;;;;0.20;0.20;;;;;;;10.74;86.34;99856.38;5022316;28;20192;-59
2024/01/24 09:05:01;;;;;;;0.25;0.25;;;;;;;10.65;87.25;99857.72;5017467;28;20056;-59
2024/01/24 09:07:28;;;;;;;0.30;0.30;;;;;;;10.67;86.70;99854.84;5040606;28;20859;-60
2024/01/24 09:09:56;;;;;;;0.20;0.20;;;;;;;10.78;85.41;99848.69;5041132;28;20053;-60
2024/01/24 09:12:23;;;;;;;0.30;0.30;;;;;;;10.65;86.54;99854.25;5039274;28;20098;-58
2024/01/24 09:14:50;;;;;;;0.13;0.13;;;;;;;10.75;84.71;99866.03;5038615;28;20152;-59
2024/01/24 09:17:19;;;;;;;0.20;0.20;;;;;;;10.81;84.24;99877.75;5039196;28;20049;-60
2024/01/24 09:19:46;;;;;;;0.20;0.20;;;;;;;10.91;84.51;99886.06;5039586;28;20075;-59
2024/01/24 09:22:13;;;;;;;0.20;0.20;;;;;;;10.79;85.79;99887.88;5040546;28;20059;-60
2024/01/24 09:24:41;;;;;;;0.20;0.20;;;;;;;10.76;85.89;99893.69;5039375;28;20526;-58
2024/01/24 09:27:11;;;;;;;0.20;0.20;;;;;;;10.76;86.60;99883.78;5036747;28;20409;-59
2024/01/24 09:29:38;;;;;;;0.20;0.20;;;;;;;10.80;86.32;99886.81;5040258;28;20044;-58
2024/01/24 09:32:06;;;;;;;0.20;0.20;;;;;;;10.83;86.66;99878.31;5037998;28;20052;-59
2024/01/24 09:34:34;;;;;;;0.20;0.20;;;;;;;10.80;86.79;99884.13;5043125;28;20077;-59
2024/01/24 09:37:03;;;;;;;0.20;0.20;;;;;;;10.83;86.00;99872.13;5015976;28;20491;-59
2024/01/24 09:39:30;;;;;;;0.20;0.20;;;;;;;10.96;85.16;99894.22;5038677;28;20045;-59
2024/01/24 09:41:57;;;;;;;0.20;0.20;;;;;;;10.83;85.60;99888.22;5040697;28;20461;-59
2024/01/24 09:44:24;;;;;;;0.10;0.10;;;;;;;10.79;85.88;99898.59;5034866;28;20068;-59
2024/01/24 09:46:53;;;;;;;0.13;0.13;;;;;;;10.82;85.44;99873.19;5037890;28;20531;-59
2024/01/24 09:49:20;;;;;;;0.20;0.20;;;;;;;10.75;86.05;99897.41;5038954;28;20056;-59
2024/01/24 09:51:49;;;;;;;0.20;0.20;;;;;;;10.83;85.63;99889.03;5036922;28;20072;-59
2024/01/24 09:54:16;;;;;;;0.20;0.20;;;;;;;10.80;86.16;99889.50;5038681;28;20123;-58
2024/01/24 09:56:44;;;;;;;0.20;0.20;;;;;;;10.87;86.18;99906.31;5033943;28;20033;-58
2024/01/24 09:59:11;;;;;;;0.10;0.10;;;;;;;10.83;86.50;99918.53;5035599;28;20045;-58
2024/01/24 10:01:40;;;;;;;0.20;0.20;;;;;;;10.76;85.07;99909.78;5036760;28;20499;-58
2024/01/24 10:04:08;;;;;;;0.20;0.20;;;;;;;10.85;83.07;99911.09;5038753;28;20044;-60
2024/01/24 10:06:41;;;;;;;0.20;0.20;;;;;;;10.83;83.36;99904.31;5039017;28;20440;-60
2024/01/24 10:09:10;;;;;;;0.13;0.13;;;;;;;10.87;81.85;99916.22;5040455;28;20049;-60
2024/01/24 10:11:40;;;;;;;0.20;0.20;;;;;;;10.99;81.80;99917.91;5040463;28;20056;-59
2024/01/24 10:14:07;;;;;;;0.30;0.30;;;;;;;10.96;82.22;99937.16;5041459;28;20442;-57
2024/01/24 10:16:35;;;;;;;0.17;0.17;;;;;;;11.02;82.24;99940.78;5043520;28;20364;-60
2024/01/24 10:19:02;;;;;;;0.20;0.20;;;;;;;11.01;81.61;99961.41;5025152;28;20554;-61
2024/01/24 10:21:29;;;;;;;0.15;0.15;;;;;;;11.02;78.05;99928.16;5022058;28;20059;-59
2024/01/24 10:23:59;;;;;;;0.20;0.20;;;;;;;11.08;78.85;99969.34;5042419;28;20492;-59
2024/01/24 10:26:29;;;;;;;0.20;0.20;;;;;;;11.06;79.82;99962.59;5022760;28;20072;-57
2024/01/24 10:28:57;;;;;;;0.20;0.20;;;;;;;11.07;80.72;99969.59;5045073;28;20570;-58
2024/01/24 10:31:24;;;;;;;0.20;0.20;;;;;;;10.96;80.41;99969.34;5042045;28;20049;-58
2024/01/24 10:33:56;;;;;;;0.20;0.20;;;;;;;10.97;81.66;99981.69;5043662;28;20492;-59
2024/01/24 10:36:23;;;;;;;0.20;0.20;;;;;;;11.04;81.15;99973.56;5047071;28;20116;-59
2024/01/24 10:38:50;;;;;;;0.20;0.20;;;;;;;11.01;81.39;99976.72;5025282;28;20148;-59
2024/01/24 10:41:17;;;;;;;0.20;0.20;;;;;;;10.95;79.36;99961.50;5042859;28;20041;-59
2024/01/24 10:43:52;;;;;;;0.20;0.20;;;;;;;10.99;79.54;99973.41;5043447;28;20123;-59
2024/01/24 10:46:20;;;;;;;0.30;0.30;;;;;;;11.00;79.19;99961.63;5041947;28;20053;-59
2024/01/24 10:48:47;;;;;;;0.20;0.20;;;;;;;11.02;78.19;99963.03;5048544;28;20040;-59
2024/01/24 10:51:14;;;;;;;0.20;0.20;;;;;;;11.04;75.57;99948.59;5040957;28;20048;-59
2024/01/24 10:53:41;;;;;;;0.30;0.30;;;;;;;11.07;75.08;99983.81;5040441;28;20041;-59
2024/01/24 10:56:08;;;;;;;0.20;0.20;;;;;;;11.04;76.41;99983.47;5043343;28;20052;-59
2024/01/24 10:58:36;;;;;;;0.20;0.20;;;;;;;11.15;76.67;99990.75;5046151;28;20041;-59
2024/01/24 11:01:04;;;;;;;0.30;0.30;;;;;;;11.20;77.55;99972.09;5041277;28;20048;-59
2024/01/24 11:03:32;;;;;;;0.20;0.20;;;;;;;11.21;78.15;99987.16;5045566;28;20227;-59
2024/01/24 11:06:01;;;;;;;0.20;0.20;;;;;;;11.16;77.01;99992.41;5044252;28;20186;-59
2024/01/24 11:08:30;;;;;;;0.22;0.22;;;;;;;11.23;72.41;99995.78;5043101;28;20041;-59
2024/01/24 11:10:59;;;;;;;0.20;0.20;;;;;;;11.29;72.90;99984.16;5039035;28;20088;-58
2024/01/24 11:13:29;;;;;;;0.10;0.10;;;;;;;11.21;73.38;99976.44;5038314;28;20566;-59
2024/01/24 11:15:56;;;;;;;0.20;0.20;;;;;;;11.16;74.52;100011.19;5039924;28;20037;-58
2024/01/24 11:18:26;;;;;;;0.20;0.20;;;;;;;11.19;73.50;100005.34;5025541;28;20045;-59
2024/01/24 11:20:54;;;;;;;0.20;0.20;;;;;;;11.22;73.60;99983.41;5040665;28;20143;-59
2024/01/24 11:23:44;;;;;;;0.30;0.30;;;;;;;11.11;73.29;99986.91;5041508;28;20118;-59
2024/01/24 11:26:12;;;;;;;0.20;0.20;;;;;;;11.18;72.57;99998.31;5040081;28;20045;-58
2024/01/24 11:28:39;;;;;;;0.30;0.30;;;;;;;11.29;73.46;100010.97;5041990;28;20053;-58
2024/01/24 11:31:09;;;;;;;0.20;0.20;;;;;;;11.21;72.00;100011.31;5039670;28;20041;-60
2024/01/24 11:33:38;;;;;;;0.20;0.20;;;;;;;11.17;70.43;100012.81;5041660;28;20037;-59
2024/01/24 11:36:10;;;;;;;0.20;0.20;;;;;;;11.10;70.91;100017.44;5041755;28;20045;-59